sensor_id;sensor_type;location;lat;lon;timestamp;temperature;humidity
19544;DHT22;9917;51.256;7.152;2022-10-16T00:00:06;14.70;99.90
19544;DHT22;9917;51.256;7.152;2022-10-16T00:02:33;14.70;99.90
19544;DHT22;9917;51.256;7.152;2022-10-16T00:04:59;14.70;99.90
19544;DHT22;9917;51.256;7.152;2022-10-16T00:07:24;14.70;99.90
19544;DHT22;9917;51.256;7.152;2022-10-16T00:09:50;14.70;99.90
19544;DHT22;9917;51.256;7.152;2022-10-16T00:12:16;14.80;99.90
19544;DHT22;9917;51.256;7.152;2022-10-16T00:14:41;14.90;99.90
19544;DHT22;9917;51.256;7.152;2022-10-16T00:17:07;14.80;99.90
19544;DHT22;9917;51.256;7.152;2022-10-16T00:19:34;14.80;99.90
19544;DHT22;9917;51.256;7.152;2022-10-16T00:22:00;14.90;99.90
19544;DHT22;9917;51.256;7.152;2022-10-16T00:24:26;15.00;99.90
19544;DHT22;9917;51.256;7.152;2022-10-16T00:26:51;15.00;99.90
19544;DHT22;9917;51.256;7.152;2022-10-16T00:29:17;14.90;99.90
19544;DHT22;9917;51.256;7.152;2022-10-16T00:31:43;14.90;99.90
19544;DHT22;9917;51.256;7.152;2022-10-16T00:34:08;15.00;99.90
19544;DHT22;9917;51.256;7.152;2022-10-16T00:36:35;15.00;99.90
19544;DHT22;9917;51.256;7.152;2022-10-16T00:39:02;15.00;99.90
19544;DHT22;9917;51.256;7.152;2022-10-16T00:41:28;14.80;99.90
19544;DHT22;9917;51.256;7.152;2022-10-16T00:43:55;14.90;99.90
19544;DHT22;9917;51.256;7.152;2022-10-16T00:46:23;14.90;99.90
19544;DHT22;9917;51.256;7.152;2022-10-16T00:48:52;14.80;99.90
19544;DHT22;9917;51.256;7.152;2022-10-16T00:51:22;14.80;99.90
19544;DHT22;9917;51.256;7.152;2022-10-16T00:53:50;14.70;99.90
19544;DHT22;9917;51.256;7.152;2022-10-16T00:56:16;14.60;99.90
19544;DHT22;9917;51.256;7.152;2022-10-16T00:58:42;14.50;99.90
19544;DHT22;9917;51.256;7.152;2022-10-16T01:01:07;14.50;99.90
19544;DHT22;9917;51.256;7.152;2022-10-16T01:03:36;14.50;99.90
19544;DHT22;9917;51.256;7.152;2022-10-16T01:06:21;14.40;99.90
19544;DHT22;9917;51.256;7.152;2022-10-16T01:09:00;14.40;99.90
19544;DHT22;9917;51.256;7.152;2022-10-16T01:11:32;14.40;99.90
19544;DHT22;9917;51.256;7.152;2022-10-16T01:14:05;14.30;99.90
19544;DHT22;9917;51.256;7.152;2022-10-16T01:16:36;14.30;99.90
19544;DHT22;9917;51.256;7.152;2022-10-16T01:19:09;14.30;99.90
19544;DHT22;9917;51.256;7.152;2022-10-16T01:21:40;14.30;99.90
19544;DHT22;9917;51.256;7.152;2022-10-16T01:24:14;14.30;99.90
19544;DHT22;9917;51.256;7.152;2022-10-16T01:26:58;14.30;99.90
19544;DHT22;9917;51.256;7.152;2022-10-16T01:29:26;14.20;99.90
19544;DHT22;9917;51.256;7.152;2022-10-16T01:31:56;14.40;99.90
19544;DHT22;9917;51.256;7.152;2022-10-16T01:34:30;14.20;99.90
19544;DHT22;9917;51.256;7.152;2022-10-16T01:37:01;14.20;99.90
19544;DHT22;9917;51.256;7.152;2022-10-16T01:39:30;14.30;99.90
19544;DHT22;9917;51.256;7.152;2022-10-16T01:42:05;14.20;99.90
19544;DHT22;9917;51.256;7.152;2022-10-16T01:44:33;14.20;99.90
19544;DHT22;9917;51.256;7.152;2022-10-16T01:47:09;14.20;99.90
19544;DHT22;9917;51.256;7.152;2022-10-16T01:49:37;14.10;99.90
19544;DHT22;9917;51.256;7.152;2022-10-16T01:52:06;14.10;99.90
19544;DHT22;9917;51.256;7.152;2022-10-16T01:54:35;14.00;99.90
19544;DHT22;9917;51.256;7.152;2022-10-16T01:57:04;14.10;99.90
19544;DHT22;9917;51.256;7.152;2022-10-16T01:59:33;14.20;99.90
19544;DHT22;9917;51.256;7.152;2022-10-16T02:02:06;14.20;99.90
19544;DHT22;9917;51.256;7.152;2022-10-16T02:04:34;14.20;99.90
19544;DHT22;9917;51.256;7.152;2022-10-16T02:07:02;14.20;99.90
19544;DHT22;9917;51.256;7.152;2022-10-16T02:09:28;14.10;99.90
19544;DHT22;9917;51.256;7.152;2022-10-16T02:11:57;14.30;99.90
19544;DHT22;9917;51.256;7.152;2022-10-16T02:14:26;14.40;99.90
19544;DHT22;9917;51.256;7.152;2022-10-16T02:16:52;14.30;99.90
19544;DHT22;9917;51.256;7.152;2022-10-16T02:19:18;14.40;99.90
19544;DHT22;9917;51.256;7.152;2022-10-16T02:21:49;14.30;99.90
19544;DHT22;9917;51.256;7.152;2022-10-16T02:24:21;14.30;99.90
19544;DHT22;9917;51.256;7.152;2022-10-16T02:26:52;14.20;99.90
19544;DHT22;9917;51.256;7.152;2022-10-16T02:29:24;14.20;99.90
19544;DHT22;9917;51.256;7.152;2022-10-16T02:31:55;14.20;99.90
19544;DHT22;9917;51.256;7.152;2022-10-16T02:34:22;14.40;99.90
19544;DHT22;9917;51.256;7.152;2022-10-16T02:36:50;14.10;99.90
19544;DHT22;9917;51.256;7.152;2022-10-16T02:39:19;14.20;99.90
19544;DHT22;9917;51.256;7.152;2022-10-16T02:41:45;14.50;99.90
19544;DHT22;9917;51.256;7.152;2022-10-16T02:44:11;14.30;99.90
19544;DHT22;9917;51.256;7.152;2022-10-16T02:46:37;14.30;99.90
19544;DHT22;9917;51.256;7.152;2022-10-16T02:49:04;14.30;99.90
19544;DHT22;9917;51.256;7.152;2022-10-16T02:51:31;14.30;99.90
19544;DHT22;9917;51.256;7.152;2022-10-16T02:53:56;14.30;99.90
19544;DHT22;9917;51.256;7.152;2022-10-16T02:56:23;14.30;99.90
19544;DHT22;9917;51.256;7.152;2022-10-16T02:58:49;14.30;99.90
19544;DHT22;9917;51.256;7.152;2022-10-16T03:01:15;14.20;99.90
19544;DHT22;9917;51.256;7.152;2022-10-16T03:03:41;14.20;99.90
19544;DHT22;9917;51.256;7.152;2022-10-16T03:06:08;14.90;99.90
19544;DHT22;9917;51.256;7.152;2022-10-16T03:08:34;14.20;99.90
19544;DHT22;9917;51.256;7.152;2022-10-16T03:11:00;14.20;99.90
19544;DHT22;9917;51.256;7.152;2022-10-16T03:13:26;14.20;99.90
19544;DHT22;9917;51.256;7.152;2022-10-16T03:15:51;14.20;99.90
19544;DHT22;9917;51.256;7.152;2022-10-16T03:18:17;14.70;99.90
19544;DHT22;9917;51.256;7.152;2022-10-16T03:20:43;14.20;99.90
19544;DHT22;9917;51.256;7.152;2022-10-16T03:23:10;14.20;99.90
19544;DHT22;9917;51.256;7.152;2022-10-16T03:25:36;14.20;99.90
19544;DHT22;9917;51.256;7.152;2022-10-16T03:28:02;14.10;99.90
19544;DHT22;9917;51.256;7.152;2022-10-16T03:30:28;14.10;99.90
19544;DHT22;9917;51.256;7.152;2022-10-16T03:32:53;14.10;99.90
19544;DHT22;9917;51.256;7.152;2022-10-16T03:35:19;14.10;99.90
19544;DHT22;9917;51.256;7.152;2022-10-16T03:37:45;14.40;99.90
19544;DHT22;9917;51.256;7.152;2022-10-16T03:40:12;14.10;99.90
19544;DHT22;9917;51.256;7.152;2022-10-16T03:42:38;14.10;99.90
19544;DHT22;9917;51.256;7.152;2022-10-16T03:45:04;14.10;99.90
19544;DHT22;9917;51.256;7.152;2022-10-16T03:47:30;14.10;99.90
19544;DHT22;9917;51.256;7.152;2022-10-16T03:49:56;14.20;99.90
19544;DHT22;9917;51.256;7.152;2022-10-16T03:52:22;14.20;99.90
19544;DHT22;9917;51.256;7.152;2022-10-16T03:54:47;14.20;99.90
19544;DHT22;9917;51.256;7.152;2022-10-16T03:57:15;14.20;99.90
19544;DHT22;9917;51.256;7.152;2022-10-16T03:59:40;14.30;99.90
19544;DHT22;9917;51.256;7.152;2022-10-16T04:02:06;14.20;99.90
19544;DHT22;9917;51.256;7.152;2022-10-16T04:04:32;14.20;99.90
19544;DHT22;9917;51.256;7.152;2022-10-16T04:06:58;14.10;99.90
19544;DHT22;9917;51.256;7.152;2022-10-16T04:09:23;14.10;99.90
19544;DHT22;9917;51.256;7.152;2022-10-16T04:11:49;14.40;99.90
19544;DHT22;9917;51.256;7.152;2022-10-16T04:14:16;14.40;99.90
19544;DHT22;9917;51.256;7.152;2022-10-16T04:16:42;14.10;99.90
19544;DHT22;9917;51.256;7.152;2022-10-16T04:19:09;14.10;99.90
19544;DHT22;9917;51.256;7.152;2022-10-16T04:21:34;14.10;99.90
19544;DHT22;9917;51.256;7.152;2022-10-16T04:24:00;14.10;99.90
19544;DHT22;9917;51.256;7.152;2022-10-16T04:26:26;14.00;99.90
19544;DHT22;9917;51.256;7.152;2022-10-16T04:28:51;14.00;99.90
19544;DHT22;9917;51.256;7.152;2022-10-16T04:31:18;14.00;99.90
19544;DHT22;9917;51.256;7.152;2022-10-16T04:33:44;14.00;99.90
19544;DHT22;9917;51.256;7.152;2022-10-16T04:36:10;14.00;99.90
19544;DHT22;9917;51.256;7.152;2022-10-16T04:38:36;13.90;99.90
19544;DHT22;9917;51.256;7.152;2022-10-16T04:41:01;13.90;99.90
19544;DHT22;9917;51.256;7.152;2022-10-16T04:43:27;13.90;99.90
19544;DHT22;9917;51.256;7.152;2022-10-16T04:45:53;13.90;99.90
19544;DHT22;9917;51.256;7.152;2022-10-16T04:48:20;13.80;99.90
19544;DHT22;9917;51.256;7.152;2022-10-16T04:50:46;14.60;99.90
19544;DHT22;9917;51.256;7.152;2022-10-16T04:53:12;13.80;99.90
19544;DHT22;9917;51.256;7.152;2022-10-16T04:55:38;13.70;99.90
19544;DHT22;9917;51.256;7.152;2022-10-16T04:58:03;13.60;99.90
19544;DHT22;9917;51.256;7.152;2022-10-16T05:00:29;13.70;99.90
19544;DHT22;9917;51.256;7.152;2022-10-16T05:02:55;13.70;99.90
19544;DHT22;9917;51.256;7.152;2022-10-16T05:05:22;14.20;99.90
19544;DHT22;9917;51.256;7.152;2022-10-16T05:07:48;13.70;99.90
19544;DHT22;9917;51.256;7.152;2022-10-16T05:10:14;13.70;99.90
19544;DHT22;9917;51.256;7.152;2022-10-16T05:12:40;13.70;99.90
19544;DHT22;9917;51.256;7.152;2022-10-16T05:15:06;13.70;99.90
19544;DHT22;9917;51.256;7.152;2022-10-16T05:17:32;13.70;99.90
19544;DHT22;9917;51.256;7.152;2022-10-16T05:19:58;13.80;99.90
19544;DHT22;9917;51.256;7.152;2022-10-16T05:22:25;13.70;99.90
19544;DHT22;9917;51.256;7.152;2022-10-16T05:24:51;13.60;99.90
19544;DHT22;9917;51.256;7.152;2022-10-16T05:27:17;13.50;99.90
19544;DHT22;9917;51.256;7.152;2022-10-16T05:29:42;14.20;99.90
19544;DHT22;9917;51.256;7.152;2022-10-16T05:32:08;13.50;99.90
19544;DHT22;9917;51.256;7.152;2022-10-16T05:34:34;13.50;99.90
19544;DHT22;9917;51.256;7.152;2022-10-16T05:36:59;13.50;99.90
19544;DHT22;9917;51.256;7.152;2022-10-16T05:39:27;13.50;99.90
19544;DHT22;9917;51.256;7.152;2022-10-16T05:41:53;13.50;99.90
19544;DHT22;9917;51.256;7.152;2022-10-16T05:44:18;13.50;99.90
19544;DHT22;9917;51.256;7.152;2022-10-16T05:46:46;13.50;99.90
19544;DHT22;9917;51.256;7.152;2022-10-16T05:49:12;13.50;99.90
19544;DHT22;9917;51.256;7.152;2022-10-16T05:51:37;13.50;99.90
19544;DHT22;9917;51.256;7.152;2022-10-16T05:54:03;13.50;99.90
19544;DHT22;9917;51.256;7.152;2022-10-16T05:56:30;13.50;99.90
19544;DHT22;9917;51.256;7.152;2022-10-16T05:58:56;13.40;99.90
19544;DHT22;9917;51.256;7.152;2022-10-16T06:01:22;13.50;99.90
19544;DHT22;9917;51.256;7.152;2022-10-16T06:03:48;13.50;99.90
19544;DHT22;9917;51.256;7.152;2022-10-16T06:06:15;13.50;99.90
19544;DHT22;9917;51.256;7.152;2022-10-16T06:08:42;13.60;99.90
19544;DHT22;9917;51.256;7.152;2022-10-16T06:11:10;13.70;99.90
19544;DHT22;9917;51.256;7.152;2022-10-16T06:13:38;13.70;99.90
19544;DHT22;9917;51.256;7.152;2022-10-16T06:16:05;13.80;99.90
19544;DHT22;9917;51.256;7.152;2022-10-16T06:18:30;13.80;99.90
19544;DHT22;9917;51.256;7.152;2022-10-16T06:20:57;13.80;99.90
19544;DHT22;9917;51.256;7.152;2022-10-16T06:23:23;13.80;99.90
19544;DHT22;9917;51.256;7.152;2022-10-16T06:25:49;13.80;99.90
19544;DHT22;9917;51.256;7.152;2022-10-16T06:28:15;14.00;99.90
19544;DHT22;9917;51.256;7.152;2022-10-16T06:30:42;14.00;99.90
19544;DHT22;9917;51.256;7.152;2022-10-16T06:33:08;14.00;99.90
19544;DHT22;9917;51.256;7.152;2022-10-16T06:35:34;14.20;99.90
19544;DHT22;9917;51.256;7.152;2022-10-16T06:37:59;14.30;99.90
19544;DHT22;9917;51.256;7.152;2022-10-16T06:40:25;14.30;99.90
19544;DHT22;9917;51.256;7.152;2022-10-16T06:42:51;14.40;99.90
19544;DHT22;9917;51.256;7.152;2022-10-16T06:45:16;14.50;99.90
19544;DHT22;9917;51.256;7.152;2022-10-16T06:47:44;14.50;99.90
19544;DHT22;9917;51.256;7.152;2022-10-16T06:50:09;15.60;99.90
19544;DHT22;9917;51.256;7.152;2022-10-16T06:52:35;15.70;99.90
19544;DHT22;9917;51.256;7.152;2022-10-16T06:55:01;14.70;99.90
19544;DHT22;9917;51.256;7.152;2022-10-16T06:57:27;14.80;99.90
19544;DHT22;9917;51.256;7.152;2022-10-16T06:59:52;14.80;99.90
19544;DHT22;9917;51.256;7.152;2022-10-16T07:02:18;14.80;99.90
19544;DHT22;9917;51.256;7.152;2022-10-16T07:04:45;14.90;99.90
19544;DHT22;9917;51.256;7.152;2022-10-16T07:07:11;15.00;99.90
19544;DHT22;9917;51.256;7.152;2022-10-16T07:09:37;15.10;99.90
19544;DHT22;9917;51.256;7.152;2022-10-16T07:12:03;15.30;99.90
19544;DHT22;9917;51.256;7.152;2022-10-16T07:14:29;15.30;99.90
19544;DHT22;9917;51.256;7.152;2022-10-16T07:16:54;15.40;99.90
19544;DHT22;9917;51.256;7.152;2022-10-16T07:19:20;15.50;99.90
19544;DHT22;9917;51.256;7.152;2022-10-16T07:21:47;15.30;99.90
19544;DHT22;9917;51.256;7.152;2022-10-16T07:24:14;15.30;99.90
19544;DHT22;9917;51.256;7.152;2022-10-16T07:26:50;15.30;99.90
19544;DHT22;9917;51.256;7.152;2022-10-16T07:29:21;15.30;99.90
19544;DHT22;9917;51.256;7.152;2022-10-16T07:31:47;15.20;99.90
19544;DHT22;9917;51.256;7.152;2022-10-16T07:34:15;15.40;99.90
19544;DHT22;9917;51.256;7.152;2022-10-16T07:36:52;16.20;99.90
19544;DHT22;9917;51.256;7.152;2022-10-16T07:39:18;16.80;99.90
19544;DHT22;9917;51.256;7.152;2022-10-16T07:41:44;17.10;99.90
19544;DHT22;9917;51.256;7.152;2022-10-16T07:44:10;17.60;99.90
19544;DHT22;9917;51.256;7.152;2022-10-16T07:46:36;17.60;99.90
19544;DHT22;9917;51.256;7.152;2022-10-16T07:49:02;17.40;99.90
19544;DHT22;9917;51.256;7.152;2022-10-16T07:51:27;17.10;99.90
19544;DHT22;9917;51.256;7.152;2022-10-16T07:53:55;16.80;99.90
19544;DHT22;9917;51.256;7.152;2022-10-16T07:56:21;16.70;99.90
19544;DHT22;9917;51.256;7.152;2022-10-16T07:58:47;16.60;99.90
19544;DHT22;9917;51.256;7.152;2022-10-16T08:01:14;17.90;99.90
19544;DHT22;9917;51.256;7.152;2022-10-16T08:03:42;19.90;99.90
19544;DHT22;9917;51.256;7.152;2022-10-16T08:06:08;20.60;99.90
19544;DHT22;9917;51.256;7.152;2022-10-16T08:08:34;22.00;99.90
19544;DHT22;9917;51.256;7.152;2022-10-16T08:11:01;23.30;99.90
19544;DHT22;9917;51.256;7.152;2022-10-16T08:13:26;24.20;99.90
19544;DHT22;9917;51.256;7.152;2022-10-16T08:15:54;24.60;99.90
19544;DHT22;9917;51.256;7.152;2022-10-16T08:18:19;25.20;99.90
19544;DHT22;9917;51.256;7.152;2022-10-16T08:20:45;26.90;99.90
19544;DHT22;9917;51.256;7.152;2022-10-16T08:23:12;28.50;99.10
19544;DHT22;9917;51.256;7.152;2022-10-16T08:25:39;28.90;96.00
19544;DHT22;9917;51.256;7.152;2022-10-16T08:28:07;28.80;92.30
19544;DHT22;9917;51.256;7.152;2022-10-16T08:30:44;28.40;90.50
19544;DHT22;9917;51.256;7.152;2022-10-16T08:33:10;29.80;90.50
19544;DHT22;9917;51.256;7.152;2022-10-16T08:35:35;30.10;84.10
19544;DHT22;9917;51.256;7.152;2022-10-16T08:38:09;29.70;79.90
19544;DHT22;9917;51.256;7.152;2022-10-16T08:40:37;28.60;81.90
19544;DHT22;9917;51.256;7.152;2022-10-16T08:43:30;29.50;80.50
19544;DHT22;9917;51.256;7.152;2022-10-16T08:46:11;30.20;75.70
19544;DHT22;9917;51.256;7.152;2022-10-16T08:48:44;29.30;74.20
19544;DHT22;9917;51.256;7.152;2022-10-16T08:51:14;28.70;77.00
19544;DHT22;9917;51.256;7.152;2022-10-16T08:53:46;28.20;78.00
19544;DHT22;9917;51.256;7.152;2022-10-16T08:56:14;28.80;76.70
19544;DHT22;9917;51.256;7.152;2022-10-16T08:58:41;29.00;74.50
19544;DHT22;9917;51.256;7.152;2022-10-16T09:01:21;28.90;74.90
19544;DHT22;9917;51.256;7.152;2022-10-16T09:04:02;29.00;71.60
19544;DHT22;9917;51.256;7.152;2022-10-16T09:06:39;28.90;72.40
19544;DHT22;9917;51.256;7.152;2022-10-16T09:09:20;29.80;72.00
19544;DHT22;9917;51.256;7.152;2022-10-16T09:11:55;29.00;71.60
19544;DHT22;9917;51.256;7.152;2022-10-16T09:15:02;29.60;71.00
19544;DHT22;9917;51.256;7.152;2022-10-16T09:17:40;30.00;71.20
19544;DHT22;9917;51.256;7.152;2022-10-16T09:20:34;31.40;65.80
19544;DHT22;9917;51.256;7.152;2022-10-16T09:23:17;31.80;64.50
19544;DHT22;9917;51.256;7.152;2022-10-16T09:25:45;31.00;64.10
19544;DHT22;9917;51.256;7.152;2022-10-16T09:28:11;31.20;65.00
19544;DHT22;9917;51.256;7.152;2022-10-16T09:30:38;30.70;62.20
19544;DHT22;9917;51.256;7.152;2022-10-16T09:33:04;31.10;64.00
19544;DHT22;9917;51.256;7.152;2022-10-16T09:35:32;31.60;62.20
19544;DHT22;9917;51.256;7.152;2022-10-16T09:38:01;32.30;62.00
19544;DHT22;9917;51.256;7.152;2022-10-16T09:40:28;33.60;58.70
19544;DHT22;9917;51.256;7.152;2022-10-16T09:43:18;32.90;56.60
19544;DHT22;9917;51.256;7.152;2022-10-16T09:45:55;32.60;58.70
19544;DHT22;9917;51.256;7.152;2022-10-16T09:48:21;33.10;56.50
19544;DHT22;9917;51.256;7.152;2022-10-16T09:50:56;33.60;55.40
19544;DHT22;9917;51.256;7.152;2022-10-16T09:53:23;33.80;54.70
19544;DHT22;9917;51.256;7.152;2022-10-16T09:55:49;33.80;53.50
19544;DHT22;9917;51.256;7.152;2022-10-16T09:58:15;32.90;54.40
19544;DHT22;9917;51.256;7.152;2022-10-16T10:00:41;33.20;53.50
19544;DHT22;9917;51.256;7.152;2022-10-16T10:03:11;33.30;53.50
19544;DHT22;9917;51.256;7.152;2022-10-16T10:05:39;33.60;53.00
19544;DHT22;9917;51.256;7.152;2022-10-16T10:08:06;33.40;52.80
19544;DHT22;9917;51.256;7.152;2022-10-16T10:10:33;33.20;53.20
19544;DHT22;9917;51.256;7.152;2022-10-16T10:13:00;32.00;54.10
19544;DHT22;9917;51.256;7.152;2022-10-16T10:15:28;31.30;54.20
19544;DHT22;9917;51.256;7.152;2022-10-16T10:17:57;30.70;55.90
19544;DHT22;9917;51.256;7.152;2022-10-16T10:20:27;31.00;54.90
19544;DHT22;9917;51.256;7.152;2022-10-16T10:22:53;29.40;56.70
19544;DHT22;9917;51.256;7.152;2022-10-16T10:25:26;29.30;57.80
19544;DHT22;9917;51.256;7.152;2022-10-16T10:28:09;29.00;58.00
19544;DHT22;9917;51.256;7.152;2022-10-16T10:30:44;28.90;57.90
19544;DHT22;9917;51.256;7.152;2022-10-16T10:33:25;29.40;57.70
19544;DHT22;9917;51.256;7.152;2022-10-16T10:36:02;29.50;57.20
19544;DHT22;9917;51.256;7.152;2022-10-16T10:38:41;30.50;56.90
19544;DHT22;9917;51.256;7.152;2022-10-16T10:41:27;30.70;55.20
19544;DHT22;9917;51.256;7.152;2022-10-16T10:44:05;28.80;56.50
19544;DHT22;9917;51.256;7.152;2022-10-16T10:46:36;27.70;58.80
19544;DHT22;9917;51.256;7.152;2022-10-16T10:52:05;26.40;62.60
19544;DHT22;9917;51.256;7.152;2022-10-16T10:54:39;27.40;62.00
19544;DHT22;9917;51.256;7.152;2022-10-16T10:57:10;29.00;59.80
19544;DHT22;9917;51.256;7.152;2022-10-16T10:59:54;30.20;57.30
19544;DHT22;9917;51.256;7.152;2022-10-16T11:02:28;31.70;55.20
19544;DHT22;9917;51.256;7.152;2022-10-16T11:05:27;32.80;52.70
19544;DHT22;9917;51.256;7.152;2022-10-16T11:07:59;31.00;53.70
19544;DHT22;9917;51.256;7.152;2022-10-16T11:10:28;31.00;54.10
19544;DHT22;9917;51.256;7.152;2022-10-16T11:13:00;30.90;54.50
19544;DHT22;9917;51.256;7.152;2022-10-16T11:18:40;31.90;52.00
19544;DHT22;9917;51.256;7.152;2022-10-16T11:21:11;32.70;51.40
19544;DHT22;9917;51.256;7.152;2022-10-16T11:23:44;33.50;49.80
19544;DHT22;9917;51.256;7.152;2022-10-16T11:26:19;34.40;49.30
19544;DHT22;9917;51.256;7.152;2022-10-16T11:28:49;34.90;48.00
19544;DHT22;9917;51.256;7.152;2022-10-16T11:31:19;34.80;48.30
19544;DHT22;9917;51.256;7.152;2022-10-16T11:33:51;35.50;47.30
19544;DHT22;9917;51.256;7.152;2022-10-16T11:36:21;36.90;46.40
19544;DHT22;9917;51.256;7.152;2022-10-16T11:38:54;37.90;44.40
19544;DHT22;9917;51.256;7.152;2022-10-16T11:41:27;38.20;43.20
19544;DHT22;9917;51.256;7.152;2022-10-16T11:44:17;38.60;41.70
19544;DHT22;9917;51.256;7.152;2022-10-16T11:46:50;38.70;40.80
19544;DHT22;9917;51.256;7.152;2022-10-16T11:49:20;37.40;41.00
19544;DHT22;9917;51.256;7.152;2022-10-16T11:51:55;35.20;43.60
19544;DHT22;9917;51.256;7.152;2022-10-16T11:54:30;34.00;45.50
19544;DHT22;9917;51.256;7.152;2022-10-16T11:57:03;33.00;46.80
19544;DHT22;9917;51.256;7.152;2022-10-16T11:59:39;33.70;46.30
19544;DHT22;9917;51.256;7.152;2022-10-16T12:02:32;34.50;45.30
19544;DHT22;9917;51.256;7.152;2022-10-16T12:05:09;35.00;44.60
19544;DHT22;9917;51.256;7.152;2022-10-16T12:07:46;33.70;45.60
19544;DHT22;9917;51.256;7.152;2022-10-16T12:10:22;32.80;47.10
19544;DHT22;9917;51.256;7.152;2022-10-16T12:12:47;32.30;48.10
19544;DHT22;9917;51.256;7.152;2022-10-16T12:15:22;32.10;47.60
19544;DHT22;9917;51.256;7.152;2022-10-16T12:17:48;32.20;48.60
19544;DHT22;9917;51.256;7.152;2022-10-16T12:20:27;33.30;47.70
19544;DHT22;9917;51.256;7.152;2022-10-16T12:22:59;34.50;47.10
19544;DHT22;9917;51.256;7.152;2022-10-16T12:25:31;34.40;44.90
19544;DHT22;9917;51.256;7.152;2022-10-16T12:28:03;34.70;45.40
19544;DHT22;9917;51.256;7.152;2022-10-16T12:30:31;35.50;45.10
19544;DHT22;9917;51.256;7.152;2022-10-16T12:32:59;35.60;44.50
19544;DHT22;9917;51.256;7.152;2022-10-16T12:35:27;35.50;44.30
19544;DHT22;9917;51.256;7.152;2022-10-16T12:37:54;35.70;43.90
19544;DHT22;9917;51.256;7.152;2022-10-16T12:40:33;34.30;43.70
19544;DHT22;9917;51.256;7.152;2022-10-16T12:43:12;33.10;45.50
19544;DHT22;9917;51.256;7.152;2022-10-16T12:45:38;32.60;47.90
19544;DHT22;9917;51.256;7.152;2022-10-16T12:48:18;33.20;46.50
19544;DHT22;9917;51.256;7.152;2022-10-16T12:50:44;34.40;45.20
19544;DHT22;9917;51.256;7.152;2022-10-16T12:53:18;35.40;43.90
19544;DHT22;9917;51.256;7.152;2022-10-16T12:56:04;35.40;43.30
19544;DHT22;9917;51.256;7.152;2022-10-16T12:58:51;34.90;43.60
19544;DHT22;9917;51.256;7.152;2022-10-16T13:01:28;33.90;44.20
19544;DHT22;9917;51.256;7.152;2022-10-16T13:06:53;31.60;47.60
19544;DHT22;9917;51.256;7.152;2022-10-16T13:09:33;29.60;50.20
19544;DHT22;9917;51.256;7.152;2022-10-16T13:12:17;28.40;52.50
19544;DHT22;9917;51.256;7.152;2022-10-16T13:15:13;27.50;54.30
19544;DHT22;9917;51.256;7.152;2022-10-16T13:17:49;27.10;55.70
19544;DHT22;9917;51.256;7.152;2022-10-16T13:20:23;26.90;56.20
19544;DHT22;9917;51.256;7.152;2022-10-16T13:22:58;26.90;56.60
19544;DHT22;9917;51.256;7.152;2022-10-16T13:25:34;26.80;57.50
19544;DHT22;9917;51.256;7.152;2022-10-16T13:28:07;27.50;57.10
19544;DHT22;9917;51.256;7.152;2022-10-16T13:30:37;28.90;55.10
19544;DHT22;9917;51.256;7.152;2022-10-16T13:33:10;30.90;52.50
19544;DHT22;9917;51.256;7.152;2022-10-16T13:35:46;32.70;50.20
19544;DHT22;9917;51.256;7.152;2022-10-16T13:38:14;32.80;48.30
19544;DHT22;9917;51.256;7.152;2022-10-16T13:40:52;31.60;48.80
19544;DHT22;9917;51.256;7.152;2022-10-16T13:43:21;31.20;49.80
19544;DHT22;9917;51.256;7.152;2022-10-16T13:45:56;31.30;49.90
19544;DHT22;9917;51.256;7.152;2022-10-16T13:48:22;32.30;48.80
19544;DHT22;9917;51.256;7.152;2022-10-16T13:50:58;33.00;48.10
19544;DHT22;9917;51.256;7.152;2022-10-16T13:53:24;32.90;48.30
19544;DHT22;9917;51.256;7.152;2022-10-16T13:55:50;33.10;48.10
19544;DHT22;9917;51.256;7.152;2022-10-16T13:58:16;32.80;47.50
19544;DHT22;9917;51.256;7.152;2022-10-16T14:00:53;32.40;46.90
19544;DHT22;9917;51.256;7.152;2022-10-16T14:03:20;30.70;47.90
19544;DHT22;9917;51.256;7.152;2022-10-16T14:05:48;29.20;50.20
19544;DHT22;9917;51.256;7.152;2022-10-16T14:08:14;28.00;52.40
19544;DHT22;9917;51.256;7.152;2022-10-16T14:10:40;27.50;53.40
19544;DHT22;9917;51.256;7.152;2022-10-16T14:13:07;27.70;53.90
19544;DHT22;9917;51.256;7.152;2022-10-16T14:15:35;27.80;53.70
19544;DHT22;9917;51.256;7.152;2022-10-16T14:18:03;26.80;54.80
19544;DHT22;9917;51.256;7.152;2022-10-16T14:20:32;26.00;55.70
19544;DHT22;9917;51.256;7.152;2022-10-16T14:23:00;25.40;57.60
19544;DHT22;9917;51.256;7.152;2022-10-16T14:25:28;25.10;60.00
19544;DHT22;9917;51.256;7.152;2022-10-16T14:27:58;24.70;59.40
19544;DHT22;9917;51.256;7.152;2022-10-16T14:30:25;24.30;60.80
19544;DHT22;9917;51.256;7.152;2022-10-16T14:32:56;24.00;62.90
19544;DHT22;9917;51.256;7.152;2022-10-16T14:35:26;23.90;63.80
19544;DHT22;9917;51.256;7.152;2022-10-16T14:37:52;23.90;63.70
19544;DHT22;9917;51.256;7.152;2022-10-16T14:40:18;23.90;63.90
19544;DHT22;9917;51.256;7.152;2022-10-16T14:42:45;23.80;64.80
19544;DHT22;9917;51.256;7.152;2022-10-16T14:45:11;23.30;65.60
19544;DHT22;9917;51.256;7.152;2022-10-16T14:47:40;22.90;67.60
19544;DHT22;9917;51.256;7.152;2022-10-16T14:50:13;22.70;68.70
19544;DHT22;9917;51.256;7.152;2022-10-16T14:52:40;22.60;71.50
19544;DHT22;9917;51.256;7.152;2022-10-16T14:55:07;22.40;71.50
19544;DHT22;9917;51.256;7.152;2022-10-16T14:57:35;22.30;71.90
19544;DHT22;9917;51.256;7.152;2022-10-16T15:00:03;22.20;73.60
19544;DHT22;9917;51.256;7.152;2022-10-16T15:02:30;22.30;75.00
19544;DHT22;9917;51.256;7.152;2022-10-16T15:04:56;22.20;73.10
19544;DHT22;9917;51.256;7.152;2022-10-16T15:07:22;22.00;73.40
19544;DHT22;9917;51.256;7.152;2022-10-16T15:09:49;21.90;74.30
19544;DHT22;9917;51.256;7.152;2022-10-16T15:12:15;21.40;75.90
19544;DHT22;9917;51.256;7.152;2022-10-16T15:14:40;21.40;77.00
19544;DHT22;9917;51.256;7.152;2022-10-16T15:17:09;21.30;77.10
19544;DHT22;9917;51.256;7.152;2022-10-16T15:19:35;21.40;79.20
19544;DHT22;9917;51.256;7.152;2022-10-16T15:22:01;21.40;79.70
19544;DHT22;9917;51.256;7.152;2022-10-16T15:24:28;21.40;81.20
19544;DHT22;9917;51.256;7.152;2022-10-16T15:26:55;21.30;81.70
19544;DHT22;9917;51.256;7.152;2022-10-16T15:29:21;21.40;84.60
19544;DHT22;9917;51.256;7.152;2022-10-16T15:31:47;21.30;86.30
19544;DHT22;9917;51.256;7.152;2022-10-16T15:34:13;21.20;88.50
19544;DHT22;9917;51.256;7.152;2022-10-16T15:36:39;21.00;90.10
19544;DHT22;9917;51.256;7.152;2022-10-16T15:39:05;20.90;91.10
19544;DHT22;9917;51.256;7.152;2022-10-16T15:41:31;20.90;92.30
19544;DHT22;9917;51.256;7.152;2022-10-16T15:43:58;20.80;92.40
19544;DHT22;9917;51.256;7.152;2022-10-16T15:46:25;20.50;92.90
19544;DHT22;9917;51.256;7.152;2022-10-16T15:48:56;20.50;93.60
19544;DHT22;9917;51.256;7.152;2022-10-16T15:51:22;20.20;95.30
19544;DHT22;9917;51.256;7.152;2022-10-16T15:56:14;20.20;97.30
19544;DHT22;9917;51.256;7.152;2022-10-16T15:58:40;20.00;97.60
19544;DHT22;9917;51.256;7.152;2022-10-16T16:01:07;20.00;98.80
19544;DHT22;9917;51.256;7.152;2022-10-16T16:03:33;19.90;99.90
19544;DHT22;9917;51.256;7.152;2022-10-16T16:06:03;19.60;99.90
19544;DHT22;9917;51.256;7.152;2022-10-16T16:08:35;19.60;99.90